Airfield :
LOGIN :

Register | Disclaimer

   EN    FR    IT 

 










Legend :    VFR   Marginal VFR   IFR   Intensive IFR   Very Intensive IFR
Visi :
Ceiling :
>= 8 km
>= 3000ft
5 to 8 km
1000 to 3000 ft
1500m to 5 km
500 to 1000 ft
800 to 1500m
200 to 500 ft
< 800m
< 200 ft
Symbols :   Thunderstorms  Fog  Heavy snow  Heavy precipitations  Wind > 20 kt
SIGMETs :     Misc.  Thunderstorms  Icing  Turbulence  Mountain Waves  Volcanic Ashes






- Airport Elevation : 238 ft
- IATA code : FAB


EGLF - Farnborough

CURRENT METAR :
  • 270820Z 36009KT 9000 -RASN BKN007 BKN010 02/01 Q0995 RERA

EXPIRED METARs :
  • 270750Z 03008KT 9999 RA BKN006 BKN024 02/01 Q0995
  • 270720Z 04009KT 8000 RA SCT005 BKN009 BKN019 02/01 Q0994
  • 270650Z 05009KT 9000 RA BKN008 03/02 Q0994 REUP
  • 270620Z AUTO 06008KT 9000 -RA FEW007/// OVC011/// 03/02 Q0994 REUP RERA
  • 270550Z AUTO 06008KT 9999 -RA FEW009/// OVC013/// 03/02 Q0995 RERA REUP

TAF TAF EGLF
Valid from the 27 at 09:00 until the 27 at 18:00 UTC


270806Z 2709/2718 VRB03KT 9999 SCT010 BKN020
BECMG 2709/2711 31010KT
TEMPO 2709/2712 7000 RA BKN008
PROB30
TEMPO 2709/2711 4000 RASN BKN004
PROB30
TEMPO 2711/2715 32015G25KT
PROB30
TEMPO 2713/2718 8000 SHRA
ATIS : +44 09063 800 400 (*282)



MET'MAP, your aeronautical weather chart ! - Copyright ORBIFLY December 2007 - Disclaimer

ORBIFLY MET'MAP TEAM :

Programming & Development : Alexandra Zaïnal
Concept & original design : Baudouin d'Aumeries
Assistance for programming : Marc-Olivier Méhu
Technical & hardware support : Manuel Goepfert

Contact : metmap@orbifly.com




SOURCES & CREDITS :

   NOAA